sensor_id;sensor_type;location;lat;lon;timestamp;temperature;humidity
40868;DHT22;26586;50.708;22.412;2023-06-22T00:02:14;25.60;59.00
40868;DHT22;26586;50.708;22.412;2023-06-22T00:04:40;25.50;58.90
40868;DHT22;26586;50.708;22.412;2023-06-22T00:07:06;25.50;58.80
40868;DHT22;26586;50.708;22.412;2023-06-22T00:09:33;25.50;58.80
40868;DHT22;26586;50.708;22.412;2023-06-22T00:11:59;25.50;58.80
40868;DHT22;26586;50.708;22.412;2023-06-22T00:14:25;25.50;58.80
40868;DHT22;26586;50.708;22.412;2023-06-22T00:16:51;25.50;58.80
40868;DHT22;26586;50.708;22.412;2023-06-22T00:19:23;25.40;58.80
40868;DHT22;26586;50.708;22.412;2023-06-22T00:21:49;25.40;58.70
40868;DHT22;26586;50.708;22.412;2023-06-22T00:24:21;25.40;58.60
40868;DHT22;26586;50.708;22.412;2023-06-22T00:26:48;25.40;58.60
40868;DHT22;26586;50.708;22.412;2023-06-22T00:29:14;25.30;58.60
40868;DHT22;26586;50.708;22.412;2023-06-22T00:31:40;25.30;58.70
40868;DHT22;26586;50.708;22.412;2023-06-22T00:34:06;25.30;59.00
40868;DHT22;26586;50.708;22.412;2023-06-22T00:36:34;25.30;58.80
40868;DHT22;26586;50.708;22.412;2023-06-22T00:39:01;25.30;58.80
40868;DHT22;26586;50.708;22.412;2023-06-22T00:41:27;25.30;58.90
40868;DHT22;26586;50.708;22.412;2023-06-22T00:43:54;25.30;58.90
40868;DHT22;26586;50.708;22.412;2023-06-22T00:46:21;25.30;59.00
40868;DHT22;26586;50.708;22.412;2023-06-22T00:48:48;25.30;59.10
40868;DHT22;26586;50.708;22.412;2023-06-22T00:51:14;25.20;59.00
40868;DHT22;26586;50.708;22.412;2023-06-22T00:53:41;25.20;59.00
40868;DHT22;26586;50.708;22.412;2023-06-22T00:56:08;25.20;59.00
40868;DHT22;26586;50.708;22.412;2023-06-22T00:58:36;25.20;58.90
40868;DHT22;26586;50.708;22.412;2023-06-22T01:01:02;25.20;58.90
40868;DHT22;26586;50.708;22.412;2023-06-22T01:03:28;25.20;58.90
40868;DHT22;26586;50.708;22.412;2023-06-22T01:05:56;25.20;58.80
40868;DHT22;26586;50.708;22.412;2023-06-22T01:08:29;25.20;58.90
40868;DHT22;26586;50.708;22.412;2023-06-22T01:18:24;25.10;59.60
40868;DHT22;26586;50.708;22.412;2023-06-22T01:20:52;25.10;59.40
40868;DHT22;26586;50.708;22.412;2023-06-22T01:25:56;25.10;59.30
40868;DHT22;26586;50.708;22.412;2023-06-22T01:31:19;25.10;60.00
40868;DHT22;26586;50.708;22.412;2023-06-22T01:33:48;25.10;59.60
40868;DHT22;26586;50.708;22.412;2023-06-22T01:36:15;25.10;59.60
40868;DHT22;26586;50.708;22.412;2023-06-22T01:38:42;25.00;59.50
40868;DHT22;26586;50.708;22.412;2023-06-22T01:41:08;25.00;60.20
40868;DHT22;26586;50.708;22.412;2023-06-22T01:43:35;25.00;59.50
40868;DHT22;26586;50.708;22.412;2023-06-22T01:46:01;25.00;59.60
40868;DHT22;26586;50.708;22.412;2023-06-22T01:48:28;25.00;59.70
40868;DHT22;26586;50.708;22.412;2023-06-22T01:50:54;25.00;59.80
40868;DHT22;26586;50.708;22.412;2023-06-22T01:53:21;25.00;59.70
40868;DHT22;26586;50.708;22.412;2023-06-22T01:55:47;25.00;59.80
40868;DHT22;26586;50.708;22.412;2023-06-22T01:58:14;24.90;59.70
40868;DHT22;26586;50.708;22.412;2023-06-22T02:00:41;24.90;59.80
40868;DHT22;26586;50.708;22.412;2023-06-22T02:03:10;24.90;59.80
40868;DHT22;26586;50.708;22.412;2023-06-22T02:05:38;24.90;59.80
40868;DHT22;26586;50.708;22.412;2023-06-22T02:10:34;24.90;59.70
40868;DHT22;26586;50.708;22.412;2023-06-22T02:13:01;24.90;59.60
40868;DHT22;26586;50.708;22.412;2023-06-22T02:15:28;24.90;59.70
40868;DHT22;26586;50.708;22.412;2023-06-22T02:17:54;24.80;59.70
40868;DHT22;26586;50.708;22.412;2023-06-22T02:20:20;24.90;59.70
40868;DHT22;26586;50.708;22.412;2023-06-22T02:22:46;24.80;59.60
40868;DHT22;26586;50.708;22.412;2023-06-22T02:25:12;24.80;59.60
40868;DHT22;26586;50.708;22.412;2023-06-22T02:27:39;24.80;59.70
40868;DHT22;26586;50.708;22.412;2023-06-22T02:30:09;24.80;59.70
40868;DHT22;26586;50.708;22.412;2023-06-22T02:32:35;24.80;59.60
40868;DHT22;26586;50.708;22.412;2023-06-22T02:35:01;24.80;59.60
40868;DHT22;26586;50.708;22.412;2023-06-22T02:37:31;24.80;59.70
40868;DHT22;26586;50.708;22.412;2023-06-22T02:39:57;24.80;59.60
40868;DHT22;26586;50.708;22.412;2023-06-22T02:42:23;24.80;59.70
40868;DHT22;26586;50.708;22.412;2023-06-22T02:44:49;24.70;59.60
40868;DHT22;26586;50.708;22.412;2023-06-22T02:47:15;24.70;59.60
40868;DHT22;26586;50.708;22.412;2023-06-22T02:49:41;24.70;59.60
40868;DHT22;26586;50.708;22.412;2023-06-22T02:52:07;24.70;59.50
40868;DHT22;26586;50.708;22.412;2023-06-22T02:54:33;24.70;59.50
40868;DHT22;26586;50.708;22.412;2023-06-22T02:56:59;24.70;59.50
40868;DHT22;26586;50.708;22.412;2023-06-22T02:59:28;24.70;59.50
40868;DHT22;26586;50.708;22.412;2023-06-22T03:01:54;24.70;59.60
40868;DHT22;26586;50.708;22.412;2023-06-22T03:04:20;24.70;59.60
40868;DHT22;26586;50.708;22.412;2023-06-22T03:06:46;24.70;59.80
40868;DHT22;26586;50.708;22.412;2023-06-22T03:09:16;24.70;59.90
40868;DHT22;26586;50.708;22.412;2023-06-22T03:11:43;24.70;60.00
40868;DHT22;26586;50.708;22.412;2023-06-22T03:14:09;24.60;60.00
40868;DHT22;26586;50.708;22.412;2023-06-22T03:16:35;24.70;60.30
40868;DHT22;26586;50.708;22.412;2023-06-22T03:19:01;24.60;60.60
40868;DHT22;26586;50.708;22.412;2023-06-22T03:21:27;24.70;60.60
40868;DHT22;26586;50.708;22.412;2023-06-22T03:23:53;24.60;60.80
40868;DHT22;26586;50.708;22.412;2023-06-22T03:26:20;24.60;61.30
40868;DHT22;26586;50.708;22.412;2023-06-22T03:28:46;24.60;60.90
40868;DHT22;26586;50.708;22.412;2023-06-22T03:31:12;24.70;61.00
40868;DHT22;26586;50.708;22.412;2023-06-22T03:33:38;24.60;60.90
40868;DHT22;26586;50.708;22.412;2023-06-22T03:36:04;24.60;61.00
40868;DHT22;26586;50.708;22.412;2023-06-22T03:38:30;24.60;61.10
40868;DHT22;26586;50.708;22.412;2023-06-22T03:40:56;24.60;60.90
40868;DHT22;26586;50.708;22.412;2023-06-22T03:43:23;24.60;60.80
40868;DHT22;26586;50.708;22.412;2023-06-22T03:45:49;24.60;60.90
40868;DHT22;26586;50.708;22.412;2023-06-22T03:48:15;24.60;60.80
40868;DHT22;26586;50.708;22.412;2023-06-22T03:50:41;24.60;60.70
40868;DHT22;26586;50.708;22.412;2023-06-22T03:53:07;24.50;60.80
40868;DHT22;26586;50.708;22.412;2023-06-22T03:55:33;24.60;61.50
40868;DHT22;26586;50.708;22.412;2023-06-22T03:57:59;24.50;61.90
40868;DHT22;26586;50.708;22.412;2023-06-22T04:00:31;24.50;61.80
40868;DHT22;26586;50.708;22.412;2023-06-22T04:02:57;24.50;61.90
40868;DHT22;26586;50.708;22.412;2023-06-22T04:05:24;24.50;62.10
40868;DHT22;26586;50.708;22.412;2023-06-22T04:07:50;24.50;62.30
40868;DHT22;26586;50.708;22.412;2023-06-22T04:10:16;24.50;61.70
40868;DHT22;26586;50.708;22.412;2023-06-22T04:12:42;24.50;61.40
40868;DHT22;26586;50.708;22.412;2023-06-22T04:15:08;24.50;62.20
40868;DHT22;26586;50.708;22.412;2023-06-22T04:17:34;24.50;63.00
40868;DHT22;26586;50.708;22.412;2023-06-22T04:20:00;24.50;61.90
40868;DHT22;26586;50.708;22.412;2023-06-22T04:22:26;24.50;61.70
40868;DHT22;26586;50.708;22.412;2023-06-22T04:24:52;24.50;61.70
40868;DHT22;26586;50.708;22.412;2023-06-22T04:27:18;24.50;64.10
40868;DHT22;26586;50.708;22.412;2023-06-22T04:29:45;24.50;64.80
40868;DHT22;26586;50.708;22.412;2023-06-22T04:32:17;24.50;65.00
40868;DHT22;26586;50.708;22.412;2023-06-22T04:34:43;24.50;64.50
40868;DHT22;26586;50.708;22.412;2023-06-22T04:37:09;24.50;63.50
40868;DHT22;26586;50.708;22.412;2023-06-22T04:39:42;24.50;63.30
40868;DHT22;26586;50.708;22.412;2023-06-22T04:42:08;24.50;62.80
40868;DHT22;26586;50.708;22.412;2023-06-22T04:44:34;24.50;62.60
40868;DHT22;26586;50.708;22.412;2023-06-22T04:47:01;24.50;62.60
40868;DHT22;26586;50.708;22.412;2023-06-22T04:49:30;24.50;62.60
40868;DHT22;26586;50.708;22.412;2023-06-22T04:52:00;24.50;62.60
40868;DHT22;26586;50.708;22.412;2023-06-22T04:54:26;24.50;62.60
40868;DHT22;26586;50.708;22.412;2023-06-22T04:56:52;24.50;62.50
40868;DHT22;26586;50.708;22.412;2023-06-22T04:59:24;24.50;62.50
40868;DHT22;26586;50.708;22.412;2023-06-22T05:01:57;24.50;62.60
40868;DHT22;26586;50.708;22.412;2023-06-22T05:04:24;24.50;62.50
40868;DHT22;26586;50.708;22.412;2023-06-22T05:06:51;24.50;62.50
40868;DHT22;26586;50.708;22.412;2023-06-22T05:09:18;24.50;62.60
40868;DHT22;26586;50.708;22.412;2023-06-22T05:11:44;24.50;62.40
40868;DHT22;26586;50.708;22.412;2023-06-22T05:14:10;24.50;62.50
40868;DHT22;26586;50.708;22.412;2023-06-22T05:16:37;24.50;62.50
40868;DHT22;26586;50.708;22.412;2023-06-22T05:19:03;24.50;63.00
40868;DHT22;26586;50.708;22.412;2023-06-22T05:21:29;24.50;63.40
40868;DHT22;26586;50.708;22.412;2023-06-22T05:23:56;24.50;63.40
40868;DHT22;26586;50.708;22.412;2023-06-22T05:26:26;24.50;63.00
40868;DHT22;26586;50.708;22.412;2023-06-22T05:28:52;24.50;64.30
40868;DHT22;26586;50.708;22.412;2023-06-22T05:31:19;24.50;64.00
40868;DHT22;26586;50.708;22.412;2023-06-22T05:33:48;24.50;64.30
40868;DHT22;26586;50.708;22.412;2023-06-22T05:36:14;24.50;63.50
40868;DHT22;26586;50.708;22.412;2023-06-22T05:38:41;24.50;63.90
40868;DHT22;26586;50.708;22.412;2023-06-22T05:41:07;24.50;64.40
40868;DHT22;26586;50.708;22.412;2023-06-22T05:43:34;24.50;64.10
40868;DHT22;26586;50.708;22.412;2023-06-22T05:46:01;24.60;64.50
40868;DHT22;26586;50.708;22.412;2023-06-22T05:48:27;24.50;64.80
40868;DHT22;26586;50.708;22.412;2023-06-22T05:50:54;24.60;65.00
40868;DHT22;26586;50.708;22.412;2023-06-22T05:53:20;24.60;65.10
40868;DHT22;26586;50.708;22.412;2023-06-22T05:55:46;24.60;65.10
40868;DHT22;26586;50.708;22.412;2023-06-22T05:58:13;24.60;65.10
40868;DHT22;26586;50.708;22.412;2023-06-22T06:00:39;24.60;65.20
40868;DHT22;26586;50.708;22.412;2023-06-22T06:03:08;24.60;64.80
40868;DHT22;26586;50.708;22.412;2023-06-22T06:05:37;24.60;64.60
40868;DHT22;26586;50.708;22.412;2023-06-22T06:08:05;24.70;64.40
40868;DHT22;26586;50.708;22.412;2023-06-22T06:10:34;24.70;64.60
40868;DHT22;26586;50.708;22.412;2023-06-22T06:13:01;24.70;64.70
40868;DHT22;26586;50.708;22.412;2023-06-22T06:15:34;24.70;64.70
40868;DHT22;26586;50.708;22.412;2023-06-22T06:18:00;24.70;64.90
40868;DHT22;26586;50.708;22.412;2023-06-22T06:20:28;24.70;65.00
40868;DHT22;26586;50.708;22.412;2023-06-22T06:22:54;24.70;64.90
40868;DHT22;26586;50.708;22.412;2023-06-22T06:25:20;24.70;65.10
40868;DHT22;26586;50.708;22.412;2023-06-22T06:27:48;24.70;64.80
40868;DHT22;26586;50.708;22.412;2023-06-22T06:30:15;24.70;64.50
40868;DHT22;26586;50.708;22.412;2023-06-22T06:32:42;24.70;64.40
40868;DHT22;26586;50.708;22.412;2023-06-22T06:35:11;24.80;64.20
40868;DHT22;26586;50.708;22.412;2023-06-22T06:37:38;24.80;64.00
40868;DHT22;26586;50.708;22.412;2023-06-22T06:40:08;24.80;63.80
40868;DHT22;26586;50.708;22.412;2023-06-22T06:42:38;24.90;63.70
40868;DHT22;26586;50.708;22.412;2023-06-22T06:45:06;24.90;63.60
40868;DHT22;26586;50.708;22.412;2023-06-22T06:47:33;24.90;63.30
40868;DHT22;26586;50.708;22.412;2023-06-22T06:49:59;25.00;63.20
40868;DHT22;26586;50.708;22.412;2023-06-22T06:52:29;25.00;62.80
40868;DHT22;26586;50.708;22.412;2023-06-22T06:55:02;25.00;62.70
40868;DHT22;26586;50.708;22.412;2023-06-22T06:57:37;25.10;62.80
40868;DHT22;26586;50.708;22.412;2023-06-22T07:00:06;25.20;63.10
40868;DHT22;26586;50.708;22.412;2023-06-22T07:02:38;25.20;62.60
40868;DHT22;26586;50.708;22.412;2023-06-22T07:05:05;25.20;62.60
40868;DHT22;26586;50.708;22.412;2023-06-22T07:07:31;25.30;62.40
40868;DHT22;26586;50.708;22.412;2023-06-22T07:09:57;25.30;62.30
40868;DHT22;26586;50.708;22.412;2023-06-22T07:12:23;25.40;62.30
40868;DHT22;26586;50.708;22.412;2023-06-22T07:14:49;25.50;62.30
40868;DHT22;26586;50.708;22.412;2023-06-22T07:17:16;25.50;62.60
40868;DHT22;26586;50.708;22.412;2023-06-22T07:19:42;25.60;62.90
40868;DHT22;26586;50.708;22.412;2023-06-22T07:22:09;25.70;62.60
40868;DHT22;26586;50.708;22.412;2023-06-22T07:24:35;25.70;62.50
40868;DHT22;26586;50.708;22.412;2023-06-22T07:27:01;25.80;62.40
40868;DHT22;26586;50.708;22.412;2023-06-22T07:29:30;25.90;62.30
40868;DHT22;26586;50.708;22.412;2023-06-22T07:32:00;25.90;62.20
40868;DHT22;26586;50.708;22.412;2023-06-22T07:34:32;26.00;62.70
40868;DHT22;26586;50.708;22.412;2023-06-22T07:37:00;26.10;62.70
40868;DHT22;26586;50.708;22.412;2023-06-22T07:39:26;26.10;62.50
40868;DHT22;26586;50.708;22.412;2023-06-22T07:41:54;26.20;62.40
40868;DHT22;26586;50.708;22.412;2023-06-22T07:44:20;26.30;62.30
40868;DHT22;26586;50.708;22.412;2023-06-22T07:46:46;26.40;62.30
40868;DHT22;26586;50.708;22.412;2023-06-22T07:49:15;26.40;62.20
40868;DHT22;26586;50.708;22.412;2023-06-22T07:51:41;26.50;62.20
40868;DHT22;26586;50.708;22.412;2023-06-22T07:54:08;26.50;62.30
40868;DHT22;26586;50.708;22.412;2023-06-22T07:56:36;26.60;62.20
40868;DHT22;26586;50.708;22.412;2023-06-22T07:59:05;26.70;62.20
40868;DHT22;26586;50.708;22.412;2023-06-22T08:01:31;26.70;62.20
40868;DHT22;26586;50.708;22.412;2023-06-22T08:04:00;26.80;62.20
40868;DHT22;26586;50.708;22.412;2023-06-22T08:06:32;26.90;62.90
40868;DHT22;26586;50.708;22.412;2023-06-22T08:08:57;26.90;62.30
40868;DHT22;26586;50.708;22.412;2023-06-22T08:11:25;27.00;62.20
40868;DHT22;26586;50.708;22.412;2023-06-22T08:13:51;27.00;62.20
40868;DHT22;26586;50.708;22.412;2023-06-22T08:16:21;27.10;62.10
40868;DHT22;26586;50.708;22.412;2023-06-22T08:18:51;27.20;62.10
40868;DHT22;26586;50.708;22.412;2023-06-22T08:21:17;27.20;62.00
40868;DHT22;26586;50.708;22.412;2023-06-22T08:23:43;27.30;61.90
40868;DHT22;26586;50.708;22.412;2023-06-22T08:26:10;27.30;61.80
40868;DHT22;26586;50.708;22.412;2023-06-22T08:28:36;27.40;61.80
40868;DHT22;26586;50.708;22.412;2023-06-22T08:31:02;27.40;61.80
40868;DHT22;26586;50.708;22.412;2023-06-22T08:33:29;27.50;62.00
40868;DHT22;26586;50.708;22.412;2023-06-22T08:35:57;27.60;61.90
40868;DHT22;26586;50.708;22.412;2023-06-22T08:38:23;27.60;61.70
40868;DHT22;26586;50.708;22.412;2023-06-22T08:40:50;27.70;61.70
40868;DHT22;26586;50.708;22.412;2023-06-22T08:43:16;27.70;61.60
40868;DHT22;26586;50.708;22.412;2023-06-22T08:45:42;27.80;61.50
40868;DHT22;26586;50.708;22.412;2023-06-22T08:48:08;27.90;61.40
40868;DHT22;26586;50.708;22.412;2023-06-22T08:50:38;27.90;61.30
40868;DHT22;26586;50.708;22.412;2023-06-22T08:53:13;28.00;61.30
40868;DHT22;26586;50.708;22.412;2023-06-22T08:55:49;28.00;61.20
40868;DHT22;26586;50.708;22.412;2023-06-22T08:58:16;28.10;61.20
40868;DHT22;26586;50.708;22.412;2023-06-22T09:00:44;28.10;61.10
40868;DHT22;26586;50.708;22.412;2023-06-22T09:03:10;28.20;61.00
40868;DHT22;26586;50.708;22.412;2023-06-22T09:05:37;28.20;60.80
40868;DHT22;26586;50.708;22.412;2023-06-22T09:08:03;28.20;60.60
40868;DHT22;26586;50.708;22.412;2023-06-22T09:10:30;28.30;60.50
40868;DHT22;26586;50.708;22.412;2023-06-22T09:12:56;28.40;60.30
40868;DHT22;26586;50.708;22.412;2023-06-22T09:15:23;28.40;60.20
40868;DHT22;26586;50.708;22.412;2023-06-22T09:17:49;28.50;60.30
40868;DHT22;26586;50.708;22.412;2023-06-22T09:20:20;28.50;60.40
40868;DHT22;26586;50.708;22.412;2023-06-22T09:22:45;28.60;60.50
40868;DHT22;26586;50.708;22.412;2023-06-22T09:25:12;28.60;60.60
40868;DHT22;26586;50.708;22.412;2023-06-22T09:27:38;28.60;61.20
40868;DHT22;26586;50.708;22.412;2023-06-22T09:30:04;28.70;60.60
40868;DHT22;26586;50.708;22.412;2023-06-22T09:32:30;28.70;60.40
40868;DHT22;26586;50.708;22.412;2023-06-22T09:34:57;28.80;60.30
40868;DHT22;26586;50.708;22.412;2023-06-22T09:37:28;28.80;60.20
40868;DHT22;26586;50.708;22.412;2023-06-22T09:39:58;28.90;59.90
40868;DHT22;26586;50.708;22.412;2023-06-22T09:42:24;28.90;59.80
40868;DHT22;26586;50.708;22.412;2023-06-22T09:44:55;28.90;59.70
40868;DHT22;26586;50.708;22.412;2023-06-22T09:47:21;28.90;59.60
40868;DHT22;26586;50.708;22.412;2023-06-22T09:49:55;28.90;59.50
40868;DHT22;26586;50.708;22.412;2023-06-22T09:52:32;29.00;59.60
40868;DHT22;26586;50.708;22.412;2023-06-22T09:54:59;29.00;59.60
40868;DHT22;26586;50.708;22.412;2023-06-22T09:57:25;29.00;59.40
40868;DHT22;26586;50.708;22.412;2023-06-22T09:59:51;29.10;59.30
40868;DHT22;26586;50.708;22.412;2023-06-22T10:02:18;29.10;59.20
40868;DHT22;26586;50.708;22.412;2023-06-22T10:04:59;29.20;59.10
40868;DHT22;26586;50.708;22.412;2023-06-22T10:07:25;29.20;59.00
40868;DHT22;26586;50.708;22.412;2023-06-22T10:09:51;29.20;58.90
40868;DHT22;26586;50.708;22.412;2023-06-22T10:13:08;29.20;58.10
40868;DHT22;26586;50.708;22.412;2023-06-22T10:15:38;29.20;58.60
40868;DHT22;26586;50.708;22.412;2023-06-22T10:18:04;29.40;58.60
40868;DHT22;26586;50.708;22.412;2023-06-22T10:20:35;29.30;58.50
40868;DHT22;26586;50.708;22.412;2023-06-22T10:23:07;29.30;58.60
40868;DHT22;26586;50.708;22.412;2023-06-22T10:25:33;29.30;58.60
40868;DHT22;26586;50.708;22.412;2023-06-22T10:28:00;29.30;58.60
40868;DHT22;26586;50.708;22.412;2023-06-22T10:30:27;29.30;58.50
40868;DHT22;26586;50.708;22.412;2023-06-22T10:32:54;29.30;58.50
40868;DHT22;26586;50.708;22.412;2023-06-22T10:35:21;29.30;58.20
40868;DHT22;26586;50.708;22.412;2023-06-22T10:37:48;29.20;56.10
40868;DHT22;26586;50.708;22.412;2023-06-22T10:40:16;29.20;57.40
40868;DHT22;26586;50.708;22.412;2023-06-22T10:42:42;29.20;57.60
40868;DHT22;26586;50.708;22.412;2023-06-22T10:45:09;29.20;58.20
40868;DHT22;26586;50.708;22.412;2023-06-22T10:47:35;29.20;58.60
40868;DHT22;26586;50.708;22.412;2023-06-22T10:50:02;29.30;59.10
40868;DHT22;26586;50.708;22.412;2023-06-22T10:52:28;29.20;59.20
40868;DHT22;26586;50.708;22.412;2023-06-22T10:54:54;29.30;60.00
40868;DHT22;26586;50.708;22.412;2023-06-22T10:57:22;29.30;60.20
40868;DHT22;26586;50.708;22.412;2023-06-22T10:59:52;29.30;60.80
40868;DHT22;26586;50.708;22.412;2023-06-22T11:02:18;29.20;61.00
40868;DHT22;26586;50.708;22.412;2023-06-22T11:04:44;29.20;61.20
40868;DHT22;26586;50.708;22.412;2023-06-22T11:07:11;29.20;61.40
40868;DHT22;26586;50.708;22.412;2023-06-22T11:09:38;29.20;61.50
40868;DHT22;26586;50.708;22.412;2023-06-22T11:12:09;29.10;61.60
40868;DHT22;26586;50.708;22.412;2023-06-22T11:14:46;29.10;61.80
40868;DHT22;26586;50.708;22.412;2023-06-22T11:17:13;29.00;61.90
40868;DHT22;26586;50.708;22.412;2023-06-22T11:19:39;29.00;61.90
40868;DHT22;26586;50.708;22.412;2023-06-22T11:22:12;28.90;62.00
40868;DHT22;26586;50.708;22.412;2023-06-22T11:24:48;28.80;62.10
40868;DHT22;26586;50.708;22.412;2023-06-22T11:27:18;28.80;62.20
40868;DHT22;26586;50.708;22.412;2023-06-22T11:29:45;28.70;62.30
40868;DHT22;26586;50.708;22.412;2023-06-22T11:32:12;28.70;62.20
40868;DHT22;26586;50.708;22.412;2023-06-22T11:34:38;28.60;62.00
40868;DHT22;26586;50.708;22.412;2023-06-22T11:37:07;28.60;62.20
40868;DHT22;26586;50.708;22.412;2023-06-22T11:39:34;28.60;62.10
40868;DHT22;26586;50.708;22.412;2023-06-22T11:42:00;28.60;62.00
40868;DHT22;26586;50.708;22.412;2023-06-22T11:44:26;28.50;62.00
40868;DHT22;26586;50.708;22.412;2023-06-22T11:46:52;28.50;61.80
40868;DHT22;26586;50.708;22.412;2023-06-22T11:49:19;28.40;61.60
40868;DHT22;26586;50.708;22.412;2023-06-22T11:51:45;28.40;61.60
40868;DHT22;26586;50.708;22.412;2023-06-22T11:54:11;28.40;61.50
40868;DHT22;26586;50.708;22.412;2023-06-22T11:56:37;28.40;61.30
40868;DHT22;26586;50.708;22.412;2023-06-22T11:59:04;28.40;61.20
40868;DHT22;26586;50.708;22.412;2023-06-22T12:01:31;28.40;61.10
40868;DHT22;26586;50.708;22.412;2023-06-22T12:04:00;28.30;61.00
40868;DHT22;26586;50.708;22.412;2023-06-22T12:06:29;28.30;61.00
40868;DHT22;26586;50.708;22.412;2023-06-22T12:08:59;28.30;61.10
40868;DHT22;26586;50.708;22.412;2023-06-22T12:11:26;28.30;61.00
40868;DHT22;26586;50.708;22.412;2023-06-22T12:13:54;28.30;61.00
40868;DHT22;26586;50.708;22.412;2023-06-22T12:16:20;28.30;61.00
40868;DHT22;26586;50.708;22.412;2023-06-22T12:18:48;28.30;61.00
40868;DHT22;26586;50.708;22.412;2023-06-22T12:21:15;28.30;61.10
40868;DHT22;26586;50.708;22.412;2023-06-22T12:23:42;28.30;61.30
40868;DHT22;26586;50.708;22.412;2023-06-22T12:26:11;28.30;61.50
40868;DHT22;26586;50.708;22.412;2023-06-22T12:28:38;28.30;61.70
40868;DHT22;26586;50.708;22.412;2023-06-22T12:31:05;28.40;61.60
40868;DHT22;26586;50.708;22.412;2023-06-22T12:33:31;28.50;61.40
40868;DHT22;26586;50.708;22.412;2023-06-22T12:35:58;28.40;61.30
40868;DHT22;26586;50.708;22.412;2023-06-22T12:38:26;28.40;61.40
40868;DHT22;26586;50.708;22.412;2023-06-22T12:40:52;28.40;61.40
40868;DHT22;26586;50.708;22.412;2023-06-22T12:43:22;28.50;61.80
40868;DHT22;26586;50.708;22.412;2023-06-22T12:45:48;28.50;61.00
40868;DHT22;26586;50.708;22.412;2023-06-22T12:48:15;28.50;60.90
40868;DHT22;26586;50.708;22.412;2023-06-22T12:50:41;28.50;60.80
40868;DHT22;26586;50.708;22.412;2023-06-22T12:53:08;28.50;60.60
40868;DHT22;26586;50.708;22.412;2023-06-22T12:55:34;28.50;60.40
40868;DHT22;26586;50.708;22.412;2023-06-22T12:58:01;28.50;60.30
40868;DHT22;26586;50.708;22.412;2023-06-22T13:00:28;28.60;60.30
40868;DHT22;26586;50.708;22.412;2023-06-22T13:02:54;28.50;59.90
40868;DHT22;26586;50.708;22.412;2023-06-22T13:05:21;28.60;59.90
40868;DHT22;26586;50.708;22.412;2023-06-22T13:07:51;28.60;59.70
40868;DHT22;26586;50.708;22.412;2023-06-22T13:10:20;28.60;59.60
40868;DHT22;26586;50.708;22.412;2023-06-22T13:12:48;28.60;59.60
40868;DHT22;26586;50.708;22.412;2023-06-22T13:15:14;28.60;59.50
40868;DHT22;26586;50.708;22.412;2023-06-22T13:17:41;28.60;59.40
40868;DHT22;26586;50.708;22.412;2023-06-22T13:20:08;28.60;59.20
40868;DHT22;26586;50.708;22.412;2023-06-22T13:22:36;28.60;59.20
40868;DHT22;26586;50.708;22.412;2023-06-22T13:25:09;28.60;59.10
40868;DHT22;26586;50.708;22.412;2023-06-22T13:27:41;28.60;59.20
40868;DHT22;26586;50.708;22.412;2023-06-22T13:30:09;28.60;59.00
40868;DHT22;26586;50.708;22.412;2023-06-22T13:32:35;28.60;59.00
40868;DHT22;26586;50.708;22.412;2023-06-22T13:35:02;28.60;59.00
40868;DHT22;26586;50.708;22.412;2023-06-22T13:37:31;28.60;59.00
40868;DHT22;26586;50.708;22.412;2023-06-22T13:39:57;28.60;59.00
40868;DHT22;26586;50.708;22.412;2023-06-22T13:42:25;28.60;59.00
40868;DHT22;26586;50.708;22.412;2023-06-22T13:44:52;28.60;59.10
40868;DHT22;26586;50.708;22.412;2023-06-22T13:47:18;28.60;59.10
40868;DHT22;26586;50.708;22.412;2023-06-22T13:49:44;28.60;59.10
40868;DHT22;26586;50.708;22.412;2023-06-22T13:52:12;28.60;59.00
40868;DHT22;26586;50.708;22.412;2023-06-22T13:54:38;28.60;59.00
40868;DHT22;26586;50.708;22.412;2023-06-22T13:57:08;28.60;59.00
40868;DHT22;26586;50.708;22.412;2023-06-22T13:59:35;28.60;59.00
40868;DHT22;26586;50.708;22.412;2023-06-22T14:02:04;28.60;59.10
40868;DHT22;26586;50.708;22.412;2023-06-22T14:04:32;28.60;59.10
40868;DHT22;26586;50.708;22.412;2023-06-22T14:06:59;28.60;59.10
40868;DHT22;26586;50.708;22.412;2023-06-22T14:09:25;28.60;59.10
40868;DHT22;26586;50.708;22.412;2023-06-22T14:11:51;28.60;59.10
40868;DHT22;26586;50.708;22.412;2023-06-22T14:14:17;28.60;59.10
40868;DHT22;26586;50.708;22.412;2023-06-22T14:16:44;28.60;59.10
40868;DHT22;26586;50.708;22.412;2023-06-22T14:19:10;28.60;59.20
40868;DHT22;26586;50.708;22.412;2023-06-22T14:21:37;28.60;59.10
40868;DHT22;26586;50.708;22.412;2023-06-22T14:24:03;28.60;59.20
40868;DHT22;26586;50.708;22.412;2023-06-22T14:26:30;28.60;59.10
40868;DHT22;26586;50.708;22.412;2023-06-22T14:28:56;28.60;59.10
40868;DHT22;26586;50.708;22.412;2023-06-22T14:31:23;28.60;59.10
40868;DHT22;26586;50.708;22.412;2023-06-22T14:33:50;28.70;59.20
40868;DHT22;26586;50.708;22.412;2023-06-22T14:36:19;28.70;59.20
40868;DHT22;26586;50.708;22.412;2023-06-22T14:38:45;28.70;59.20
40868;DHT22;26586;50.708;22.412;2023-06-22T14:41:12;28.70;59.20
40868;DHT22;26586;50.708;22.412;2023-06-22T14:43:38;28.70;59.00
40868;DHT22;26586;50.708;22.412;2023-06-22T14:46:05;28.70;59.00
40868;DHT22;26586;50.708;22.412;2023-06-22T14:48:31;28.70;59.00
40868;DHT22;26586;50.708;22.412;2023-06-22T14:50:59;28.70;59.00
40868;DHT22;26586;50.708;22.412;2023-06-22T14:53:26;28.70;59.00
40868;DHT22;26586;50.708;22.412;2023-06-22T14:55:53;28.70;58.90
40868;DHT22;26586;50.708;22.412;2023-06-22T14:58:20;28.70;59.00
40868;DHT22;26586;50.708;22.412;2023-06-22T15:00:47;28.70;59.00
40868;DHT22;26586;50.708;22.412;2023-06-22T15:03:13;28.70;59.00
40868;DHT22;26586;50.708;22.412;2023-06-22T15:05:46;28.70;59.00
40868;DHT22;26586;50.708;22.412;2023-06-22T15:08:12;28.70;59.00
40868;DHT22;26586;50.708;22.412;2023-06-22T15:10:38;28.70;59.00
40868;DHT22;26586;50.708;22.412;2023-06-22T15:13:07;28.80;59.10
40868;DHT22;26586;50.708;22.412;2023-06-22T15:15:33;28.70;59.00
40868;DHT22;26586;50.708;22.412;2023-06-22T15:18:00;28.80;59.00
40868;DHT22;26586;50.708;22.412;2023-06-22T15:20:27;28.80;59.00
40868;DHT22;26586;50.708;22.412;2023-06-22T15:22:53;28.70;58.90
40868;DHT22;26586;50.708;22.412;2023-06-22T15:25:20;28.80;59.00
40868;DHT22;26586;50.708;22.412;2023-06-22T15:27:46;28.80;58.90
40868;DHT22;26586;50.708;22.412;2023-06-22T15:30:15;28.80;58.80
40868;DHT22;26586;50.708;22.412;2023-06-22T15:32:45;28.70;58.70